Time;durP1;ratioP1;P1;durP2;ratioP2;P2;SDS_P1;SDS_P2;PMS_P1;PMS_P2;Temp;Humidity;BMP_temperature;BMP_pressure;BME280_temperature;BME280_humidity;BME280_pressure;Samples;Min_cycle;Max_cycle;Signal;HPM_P1;HPM_P2
2021/09/24 00:00:11;;;;;;;26.40;5.03;;;;;;;12.51;75.01;101280.94;4976359;28;20211;-77
2021/09/24 00:02:39;;;;;;;20.90;4.97;;;;;;;12.47;74.99;101279.16;4975199;28;20213;-78
2021/09/24 00:05:05;;;;;;;28.00;5.10;;;;;;;12.46;75.59;101282.56;4959346;28;20717;-78
2021/09/24 00:07:31;;;;;;;26.07;5.27;;;;;;;12.46;75.22;101279.13;4959422;28;20251;-77
2021/09/24 00:09:56;;;;;;;22.60;4.80;;;;;;;12.46;74.97;101277.44;4975513;28;20200;-77
2021/09/24 00:12:21;;;;;;;31.87;6.23;;;;;;;12.41;75.65;101271.34;4976395;28;20298;-76
2021/09/24 00:14:47;;;;;;;27.03;4.90;;;;;;;12.42;75.97;101272.19;4977630;28;20181;-77
2021/09/24 00:17:13;;;;;;;22.00;4.97;;;;;;;12.43;75.04;101271.34;5008283;28;20296;-77
2021/09/24 00:19:39;;;;;;;29.47;5.47;;;;;;;12.43;75.59;101263.66;4975590;28;20188;-77
2021/09/24 00:22:05;;;;;;;32.37;5.80;;;;;;;12.41;75.99;101270.47;4977748;28;20216;-78
2021/09/24 00:24:30;;;;;;;31.03;5.63;;;;;;;12.38;75.75;101270.41;4975645;28;20262;-78
2021/09/24 00:26:55;;;;;;;33.70;6.03;;;;;;;12.39;75.90;101270.44;4976534;28;20192;-78
2021/09/24 00:29:21;;;;;;;25.43;5.87;;;;;;;12.31;76.57;101276.28;4975331;28;20196;-77
2021/09/24 00:31:46;;;;;;;27.10;5.30;;;;;;;12.24;76.24;101272.72;4976983;28;20240;-77
2021/09/24 00:34:11;;;;;;;33.20;5.17;;;;;;;12.22;77.38;101270.97;4975485;28;20192;-77
2021/09/24 00:36:37;;;;;;;22.73;5.23;;;;;;;12.21;76.93;101269.22;4975341;28;20196;-77
2021/09/24 00:39:02;;;;;;;32.33;6.07;;;;;;;12.15;77.40;101277.66;4975029;28;20200;-77
2021/09/24 00:41:28;;;;;;;25.80;4.93;;;;;;;12.08;77.78;101280.09;4975398;28;20223;-77
2021/09/24 00:43:53;;;;;;;30.83;5.20;;;;;;;12.06;77.47;101280.06;4959879;28;20224;-78
2021/09/24 00:46:18;;;;;;;19.87;5.57;;;;;;;12.01;77.54;101286.78;4975453;28;20284;-78
2021/09/24 00:48:44;;;;;;;24.47;4.93;;;;;;;11.99;77.70;101277.34;4975172;28;20189;-77
2021/09/24 00:51:09;;;;;;;24.03;5.10;;;;;;;11.97;78.27;101273.84;4976022;28;20232;-77
2021/09/24 00:53:34;;;;;;;29.17;5.97;;;;;;;11.96;78.74;101284.97;4975641;28;20204;-78
2021/09/24 00:56:00;;;;;;;25.03;5.97;;;;;;;11.89;78.66;101289.09;4975359;28;20176;-78
2021/09/24 00:58:26;;;;;;;31.23;5.70;;;;;;;11.88;78.89;101279.66;4974313;28;20193;-77
2021/09/24 01:00:52;;;;;;;28.93;6.07;;;;;;;11.83;78.46;101280.41;4975114;28;20247;-78
2021/09/24 01:03:17;;;;;;;22.90;4.83;;;;;;;11.87;78.51;101303.59;4971064;28;20654;-77
2021/09/24 01:05:43;;;;;;;27.23;5.87;;;;;;;11.87;78.82;101295.03;4970134;28;20185;-77
2021/09/24 01:08:08;;;;;;;27.30;5.47;;;;;;;11.84;78.67;101298.41;4970067;28;20192;-78
2021/09/24 01:10:34;;;;;;;28.90;5.07;;;;;;;11.88;79.50;101301.88;4970862;28;20184;-77
2021/09/24 01:12:59;;;;;;;36.57;6.13;;;;;;;11.86;79.05;101296.75;4970769;28;20181;-77
2021/09/24 01:15:25;;;;;;;33.20;5.47;;;;;;;11.85;79.01;101299.28;4971603;28;20192;-77
2021/09/24 01:17:50;;;;;;;30.23;5.97;;;;;;;11.86;79.04;101296.75;4972198;28;20292;-77
2021/09/24 01:20:19;;;;;;;26.90;5.00;;;;;;;11.86;78.72;101298.44;4970566;28;20291;-79
2021/09/24 01:22:45;;;;;;;25.53;4.80;;;;;;;11.84;79.39;101300.97;4971192;28;20212;-78
2021/09/24 01:25:11;;;;;;;30.70;5.27;;;;;;;11.87;79.20;101306.16;4970749;28;20223;-76
2021/09/24 01:27:37;;;;;;;33.40;5.97;;;;;;;11.89;79.07;101306.22;4972010;28;20212;-77
2021/09/24 01:30:04;;;;;;;28.67;4.80;;;;;;;11.89;78.91;101301.94;4971147;28;20232;-78
2021/09/24 01:32:29;;;;;;;28.10;5.70;;;;;;;11.86;79.18;101285.59;4970871;28;20296;-76
2021/09/24 01:34:54;;;;;;;24.87;4.80;;;;;;;11.85;78.76;101302.69;4971128;28;20231;-78
2021/09/24 01:37:20;;;;;;;25.37;4.53;;;;;;;11.80;79.61;101304.28;4971066;28;20192;-76
2021/09/24 01:39:45;;;;;;;28.90;5.40;;;;;;;11.76;80.24;101310.19;4970268;28;20189;-77
2021/09/24 01:42:10;;;;;;;34.33;5.67;;;;;;;11.70;80.15;101299.78;4973291;28;20765;-77
2021/09/24 01:44:36;;;;;;;29.50;5.17;;;;;;;11.73;79.82;101301.56;4971367;28;20216;-77
2021/09/24 01:47:02;;;;;;;29.50;5.83;;;;;;;11.73;80.41;101294.75;4971491;28;20185;-78
2021/09/24 01:49:27;;;;;;;33.37;5.87;;;;;;;11.75;80.33;101302.47;4954536;28;20204;-77
2021/09/24 01:51:53;;;;;;;29.70;5.20;;;;;;;11.71;79.95;101303.25;4971313;28;20212;-79
2021/09/24 01:54:20;;;;;;;32.20;5.33;;;;;;;11.71;80.07;101300.69;4970963;28;20188;-78
2021/09/24 01:56:45;;;;;;;29.07;5.27;;;;;;;11.71;80.19;101304.09;4970861;28;20534;-78
2021/09/24 01:59:10;;;;;;;28.03;5.13;;;;;;;11.72;80.05;101308.41;4959888;28;20184;-78
2021/09/24 02:01:36;;;;;;;28.43;5.60;;;;;;;11.73;79.56;101304.13;4967387;28;20224;-78
2021/09/24 02:04:02;;;;;;;27.50;5.07;;;;;;;11.72;79.86;101295.59;4970864;28;20217;-76
2021/09/24 02:06:27;;;;;;;29.20;4.90;;;;;;;11.72;80.19;101295.59;4971292;28;20196;-77
2021/09/24 02:08:53;;;;;;;25.37;5.20;;;;;;;11.75;79.73;101300.75;4973591;28;20216;-77
2021/09/24 02:11:18;;;;;;;29.47;6.20;;;;;;;11.75;79.78;101299.91;4971686;28;20267;-77
2021/09/24 02:13:44;;;;;;;24.30;5.40;;;;;;;11.73;79.97;101299.88;4970867;28;20208;-78
2021/09/24 02:16:10;;;;;;;24.53;4.23;;;;;;;11.74;79.47;101301.59;4953773;28;20658;-78
2021/09/24 02:18:38;;;;;;;24.03;5.07;;;;;;;11.76;79.76;101304.22;4961849;28;20283;-78
2021/09/24 02:21:03;;;;;;;28.60;5.27;;;;;;;11.73;80.04;101307.56;4960252;28;20217;-78
2021/09/24 02:23:29;;;;;;;26.13;4.63;;;;;;;11.73;79.82;101299.88;4971213;28;20286;-77
2021/09/24 02:25:54;;;;;;;24.77;4.77;;;;;;;11.72;79.71;101298.16;4952895;28;20283;-78
2021/09/24 02:28:19;;;;;;;22.93;4.20;;;;;;;11.71;79.46;101304.09;4978438;28;20200;-79
2021/09/24 02:30:45;;;;;;;21.80;4.70;;;;;;;11.70;79.78;101304.09;4985148;28;20183;-78
2021/09/24 02:33:10;;;;;;;24.83;5.40;;;;;;;11.70;79.35;101297.22;4955655;28;20205;-77
2021/09/24 02:35:36;;;;;;;29.27;5.33;;;;;;;11.69;79.75;101302.31;4978820;28;20188;-77
2021/09/24 02:38:01;;;;;;;26.83;4.90;;;;;;;11.70;79.47;101322.03;4958510;28;20236;-78
2021/09/24 02:40:27;;;;;;;18.67;5.00;;;;;;;11.71;79.68;101316.06;4974332;28;20188;-77
2021/09/24 02:42:52;;;;;;;30.43;5.87;;;;;;;11.72;79.63;101320.38;4975045;28;20196;-78
2021/09/24 02:45:18;;;;;;;29.10;5.03;;;;;;;11.64;80.44;101329.56;4974338;28;20220;-76
2021/09/24 02:47:43;;;;;;;25.67;5.23;;;;;;;11.55;80.21;101327.66;4981405;28;20196;-78
2021/09/24 02:50:09;;;;;;;30.33;5.17;;;;;;;11.49;79.85;101327.50;4967343;28;20716;-78
2021/09/24 02:52:35;;;;;;;25.73;5.60;;;;;;;11.49;80.05;101335.22;4970920;28;20231;-77
2021/09/24 02:55:01;;;;;;;31.40;5.50;;;;;;;11.49;80.30;101331.75;4957483;28;20667;-77
2021/09/24 02:57:26;;;;;;;24.90;5.37;;;;;;;11.47;80.16;101328.31;4956315;28;20185;-78
2021/09/24 02:59:51;;;;;;;28.67;6.23;;;;;;;11.48;80.88;101327.47;4956944;28;20185;-78
2021/09/24 03:02:17;;;;;;;30.07;5.77;;;;;;;11.44;81.07;101331.66;4955996;28;20289;-79
2021/09/24 03:04:42;;;;;;;25.90;5.17;;;;;;;11.46;80.92;101330.00;4955214;29;20221;-77
2021/09/24 03:07:08;;;;;;;21.87;5.30;;;;;;;11.47;80.97;101330.88;4972682;28;20191;-78
2021/09/24 03:09:33;;;;;;;31.07;5.33;;;;;;;11.42;81.40;101335.88;4974774;28;20657;-77
2021/09/24 03:11:58;;;;;;;20.10;5.13;;;;;;;11.40;81.38;101341.81;4984523;28;20254;-78
2021/09/24 03:14:24;;;;;;;27.27;4.67;;;;;;;11.39;80.96;101340.06;4993855;28;20184;-79
2021/09/24 03:16:49;;;;;;;25.53;5.70;;;;;;;11.41;81.12;101338.41;4951319;28;20200;-75
2021/09/24 03:19:19;;;;;;;33.37;6.00;;;;;;;11.40;81.21;101341.81;4954028;28;20194;-76
2021/09/24 03:21:44;;;;;;;28.60;5.67;;;;;;;11.37;81.01;101341.72;4953002;28;20256;-77
2021/09/24 03:24:09;;;;;;;25.10;4.77;;;;;;;11.40;81.02;101344.38;4965261;28;20215;-79
2021/09/24 03:26:35;;;;;;;30.97;5.83;;;;;;;11.34;80.88;101341.66;4954473;28;20200;-77
2021/09/24 03:29:01;;;;;;;27.27;4.87;;;;;;;11.36;81.05;101348.56;4952813;28;20296;-75
2021/09/24 03:31:26;;;;;;;27.13;5.47;;;;;;;11.28;81.21;101342.38;4969286;28;20205;-77
2021/09/24 03:33:51;;;;;;;24.03;5.00;;;;;;;11.30;81.51;101344.97;4969190;28;20193;-77
2021/09/24 03:36:17;;;;;;;27.50;5.17;;;;;;;11.25;81.00;101347.41;4976299;28;20192;-77
2021/09/24 03:38:42;;;;;;;23.30;5.70;;;;;;;11.20;81.68;101348.16;4984308;28;20200;-77
2021/09/24 03:41:08;;;;;;;29.00;5.37;;;;;;;11.20;81.42;101345.59;4962535;28;20224;-77
2021/09/24 03:43:33;;;;;;;25.17;5.17;;;;;;;11.13;81.79;101347.13;4968236;28;20591;-76
2021/09/24 03:45:58;;;;;;;29.03;5.57;;;;;;;11.13;82.02;101349.69;4952959;29;20185;-78
2021/09/24 03:48:23;;;;;;;26.70;5.20;;;;;;;11.10;81.92;101341.91;4969901;28;20250;-75
2021/09/24 03:50:49;;;;;;;26.97;4.83;;;;;;;11.13;82.49;101346.25;4962778;28;20188;-78
2021/09/24 03:53:14;;;;;;;23.90;4.53;;;;;;;11.13;82.17;101344.56;4962125;28;20180;-76
2021/09/24 03:55:40;;;;;;;29.83;5.60;;;;;;;11.11;82.21;101343.63;4979382;28;20196;-76
2021/09/24 03:58:05;;;;;;;25.63;4.77;;;;;;;11.11;82.36;101356.47;4963244;28;20212;-78
2021/09/24 04:00:30;;;;;;;20.50;4.90;;;;;;;11.11;82.42;101351.34;4985114;28;20283;-76
2021/09/24 04:02:56;;;;;;;28.10;5.17;;;;;;;11.11;82.22;101350.47;4957650;28;20586;-76
2021/09/24 04:05:21;;;;;;;29.40;5.47;;;;;;;11.08;82.49;101343.59;4972427;28;20231;-77
2021/09/24 04:07:46;;;;;;;26.70;5.53;;;;;;;11.11;82.34;101340.22;4972363;28;20275;-77
2021/09/24 04:10:12;;;;;;;29.07;5.00;;;;;;;11.15;82.12;101348.03;4972021;28;20224;-76
2021/09/24 04:12:37;;;;;;;27.20;5.00;;;;;;;11.10;82.43;101347.03;4984313;28;20293;-76
2021/09/24 04:15:04;;;;;;;26.13;5.13;;;;;;;11.12;82.69;101347.97;4971650;28;20200;-76
2021/09/24 04:17:30;;;;;;;27.10;5.07;;;;;;;11.16;83.31;101341.22;4971771;28;20192;-77
2021/09/24 04:19:55;;;;;;;18.27;4.27;;;;;;;11.19;83.09;101344.72;4967838;28;20212;-76
2021/09/24 04:22:20;;;;;;;27.57;5.17;;;;;;;11.20;82.89;101350.72;4954215;29;20272;-78
2021/09/24 04:24:46;;;;;;;28.23;4.83;;;;;;;11.19;82.94;101341.25;4954068;28;20221;-78
2021/09/24 04:27:11;;;;;;;23.23;4.70;;;;;;;11.19;83.47;101349.84;4952928;29;20595;-78
2021/09/24 04:29:36;;;;;;;19.70;4.70;;;;;;;11.21;83.05;101349.88;4954338;28;20643;-77
2021/09/24 04:32:02;;;;;;;22.57;4.90;;;;;;;11.21;82.76;101360.13;4973588;28;20765;-77
2021/09/24 04:34:27;;;;;;;25.13;5.37;;;;;;;11.18;82.59;101358.38;4973390;28;20271;-77
2021/09/24 04:36:53;;;;;;;32.17;6.10;;;;;;;11.18;82.92;101363.50;4955028;28;20201;-77
2021/09/24 04:39:18;;;;;;;27.17;5.70;;;;;;;11.17;82.94;101366.88;4972719;28;20565;-78
2021/09/24 04:41:43;;;;;;;31.60;6.23;;;;;;;11.18;82.54;101371.19;4971856;28;20239;-76
2021/09/24 04:44:09;;;;;;;25.53;5.57;;;;;;;11.15;83.03;101372.81;4974729;28;20225;-76
2021/09/24 04:46:34;;;;;;;22.57;5.67;;;;;;;11.16;82.49;101377.94;4985344;28;20191;-78
2021/09/24 04:48:59;;;;;;;31.17;5.47;;;;;;;11.13;82.10;101377.88;4974171;28;20189;-78
2021/09/24 04:51:25;;;;;;;22.77;5.03;;;;;;;11.12;82.27;101381.28;4956979;28;20201;-77
2021/09/24 04:53:50;;;;;;;25.30;4.60;;;;;;;11.10;82.50;101382.06;4971217;28;20181;-77
2021/09/24 04:56:16;;;;;;;24.40;4.90;;;;;;;11.08;82.46;101384.59;4956379;28;20221;-77
2021/09/24 04:58:42;;;;;;;28.60;5.37;;;;;;;11.10;82.34;101379.50;4988149;28;20189;-77
2021/09/24 05:01:07;;;;;;;22.77;5.03;;;;;;;11.08;82.23;101381.16;4974735;28;20687;-76
2021/09/24 05:03:33;;;;;;;27.00;5.20;;;;;;;11.03;82.80;101382.72;4976925;28;20264;-76
2021/09/24 05:05:58;;;;;;;26.00;4.93;;;;;;;10.99;82.96;101380.91;4974896;28;20225;-76
2021/09/24 05:08:23;;;;;;;28.10;5.40;;;;;;;10.99;82.86;101380.91;4977908;28;20246;-77
2021/09/24 05:10:49;;;;;;;29.53;5.97;;;;;;;10.95;83.20;101381.66;4988235;28;20199;-78
2021/09/24 05:13:14;;;;;;;22.53;5.07;;;;;;;10.93;83.00;101376.47;4994603;28;20199;-77
2021/09/24 05:15:39;;;;;;;25.73;4.83;;;;;;;10.91;83.25;101373.03;4995903;28;20234;-77
2021/09/24 05:18:06;;;;;;;23.83;4.97;;;;;;;10.92;83.33;101381.59;4973646;28;20185;-77
2021/09/24 05:20:32;;;;;;;22.67;5.27;;;;;;;10.90;83.87;101378.97;4956381;28;20280;-76
2021/09/24 05:22:57;;;;;;;22.73;5.37;;;;;;;10.90;84.03;101384.09;4966295;28;20220;-77
2021/09/24 05:25:23;;;;;;;21.70;4.87;;;;;;;10.93;84.14;101388.44;4975493;28;21099;-76
2021/09/24 05:27:49;;;;;;;27.20;4.90;;;;;;;10.93;84.55;101386.72;4979276;28;20192;-76
2021/09/24 05:30:15;;;;;;;30.23;4.97;;;;;;;10.96;84.16;101386.81;4988157;28;20422;-77
2021/09/24 05:32:40;;;;;;;28.17;5.67;;;;;;;10.97;84.71;101388.56;4994954;28;20277;-78
2021/09/24 05:35:06;;;;;;;26.60;4.67;;;;;;;11.00;84.92;101396.31;4993523;28;20184;-77
2021/09/24 05:37:32;;;;;;;23.20;4.60;;;;;;;11.01;84.67;101387.81;4962576;28;20216;-77
2021/09/24 05:39:57;;;;;;;28.73;5.70;;;;;;;11.03;85.46;101385.28;4997185;28;20239;-77
2021/09/24 05:42:23;;;;;;;25.50;4.80;;;;;;;11.05;85.35;101391.31;4975703;28;20216;-76
2021/09/24 05:44:48;;;;;;;28.03;5.27;;;;;;;11.08;85.42;101399.09;4974808;28;20213;-77
2021/09/24 05:47:13;;;;;;;25.13;5.67;;;;;;;11.14;85.10;101394.09;4994774;28;20193;-77
2021/09/24 05:49:39;;;;;;;30.77;5.50;;;;;;;11.15;85.53;101386.47;4954940;28;20662;-77
2021/09/24 05:52:04;;;;;;;25.37;5.20;;;;;;;11.22;85.23;101384.94;4955643;28;20218;-77
2021/09/24 05:54:30;;;;;;;28.60;5.03;;;;;;;11.25;85.67;101388.44;4955690;28;20217;-77
2021/09/24 05:56:55;;;;;;;27.10;5.60;;;;;;;11.31;85.64;101396.31;4987583;28;20215;-77
2021/09/24 05:59:20;;;;;;;27.70;6.43;;;;;;;11.36;85.44;101392.16;4988019;28;20240;-78
2021/09/24 06:01:48;;;;;;;27.63;5.33;;;;;;;11.42;85.46;101389.72;4956490;28;20209;-77
2021/09/24 06:04:18;;;;;;;22.57;5.33;;;;;;;11.47;85.25;101384.72;4956495;28;20224;-77
2021/09/24 06:06:43;;;;;;;25.57;5.50;;;;;;;11.48;85.18;101389.03;4978824;28;20197;-78
2021/09/24 06:09:09;;;;;;;22.60;6.07;;;;;;;11.49;85.30;101378.81;4993987;28;20188;-77
2021/09/24 06:11:34;;;;;;;30.40;5.23;;;;;;;11.59;85.26;101385.00;4999547;28;20208;-77
2021/09/24 06:14:00;;;;;;;23.87;5.10;;;;;;;11.69;84.87;101386.97;4970194;28;20276;-78
2021/09/24 06:16:25;;;;;;;22.63;4.53;;;;;;;11.77;84.61;101378.66;4959448;28;20197;-77
2021/09/24 06:18:51;;;;;;;26.83;5.40;;;;;;;11.85;84.58;101387.38;4959306;29;20197;-76
2021/09/24 06:21:18;;;;;;;19.00;4.17;;;;;;;11.91;84.27;101377.25;4959671;28;20701;-77
2021/09/24 06:23:45;;;;;;;19.33;4.43;;;;;;;11.94;84.54;101385.00;4960998;28;20228;-78
2021/09/24 06:26:10;;;;;;;18.70;4.50;;;;;;;12.03;84.05;101379.25;4974643;28;20176;-77
2021/09/24 06:28:35;;;;;;;25.67;5.30;;;;;;;12.09;84.58;101384.50;4973081;28;20204;-78
2021/09/24 06:31:01;;;;;;;23.83;5.30;;;;;;;12.14;84.74;101383.78;4969992;28;20594;-77
2021/09/24 06:33:27;;;;;;;24.00;5.00;;;;;;;12.20;84.44;101394.16;4961807;28;20188;-77
2021/09/24 06:35:53;;;;;;;20.87;4.70;;;;;;;12.29;83.96;101390.91;4971141;28;20197;-78
2021/09/24 06:38:18;;;;;;;21.10;5.03;;;;;;;12.29;84.39;101389.22;4989727;28;20220;-77
2021/09/24 06:40:43;;;;;;;21.77;4.23;;;;;;;12.33;84.28;101391.03;4975071;28;20287;-75
2021/09/24 06:43:09;;;;;;;21.17;4.47;;;;;;;12.35;84.72;101389.34;5003226;28;20200;-77
2021/09/24 06:45:35;;;;;;;19.90;4.63;;;;;;;12.44;84.49;101396.41;4980157;28;20189;-77
2021/09/24 06:48:01;;;;;;;20.10;4.27;;;;;;;12.48;84.31;101383.63;4976023;28;20205;-77
2021/09/24 06:50:26;;;;;;;18.80;5.03;;;;;;;12.56;84.03;101387.22;4960118;28;20182;-79
2021/09/24 06:52:52;;;;;;;18.37;4.53;;;;;;;12.61;84.59;101397.56;4974902;28;20572;-77
2021/09/24 06:55:21;;;;;;;17.17;4.50;;;;;;;12.66;84.83;101395.97;4957617;29;20188;-77
2021/09/24 06:57:48;;;;;;;19.17;4.27;;;;;;;12.75;84.29;101398.72;4958150;29;20182;-77
2021/09/24 07:00:14;;;;;;;22.27;4.27;;;;;;;12.77;84.70;101402.19;4957803;28;20292;-77
2021/09/24 07:02:39;;;;;;;20.20;4.77;;;;;;;12.78;85.03;101404.81;4958441;28;20217;-77
2021/09/24 07:05:06;;;;;;;21.33;5.03;;;;;;;12.76;85.98;101405.63;4969711;28;20574;-77
2021/09/24 07:07:31;;;;;;;25.57;5.10;;;;;;;12.75;86.49;101411.56;4951523;28;20252;-77
2021/09/24 07:09:58;;;;;;;21.57;4.90;;;;;;;12.72;86.91;101420.09;4977620;28;20267;-77
2021/09/24 07:12:23;;;;;;;21.10;4.90;;;;;;;12.67;88.37;101411.41;4975694;28;20301;-77
2021/09/24 07:14:49;;;;;;;22.53;4.73;;;;;;;12.72;88.65;101421.81;4977271;28;20267;-77
2021/09/24 07:17:14;;;;;;;22.90;5.00;;;;;;;12.77;88.03;101425.34;4976077;28;20193;-76
2021/09/24 07:19:41;;;;;;;25.63;5.37;;;;;;;12.78;88.06;101417.66;4977264;28;20183;-76
2021/09/24 07:22:07;;;;;;;22.10;5.73;;;;;;;12.74;88.75;101418.44;4976235;28;20221;-77
2021/09/24 07:24:32;;;;;;;28.20;6.23;;;;;;;12.80;88.92;101420.22;4961183;28;20216;-78
2021/09/24 07:26:57;;;;;;;22.77;5.20;;;;;;;12.79;88.99;101416.81;4976826;28;20230;-77
2021/09/24 07:29:23;;;;;;;21.33;5.47;;;;;;;12.89;89.09;101417.84;4976809;28;20208;-78
2021/09/24 07:31:48;;;;;;;25.23;6.23;;;;;;;12.93;88.89;101418.78;4981898;28;20208;-77
2021/09/24 07:34:13;;;;;;;17.43;5.40;;;;;;;12.97;88.92;101407.72;4971238;28;20652;-77
2021/09/24 07:36:39;;;;;;;19.97;5.90;;;;;;;13.07;88.77;101401.94;4995505;28;20559;-78
2021/09/24 07:39:06;;;;;;;19.93;5.47;;;;;;;13.18;88.08;101403.00;4960307;28;20274;-77
2021/09/24 07:41:32;;;;;;;20.10;6.00;;;;;;;13.29;87.43;101401.47;4972683;28;20221;-77
2021/09/24 07:43:59;;;;;;;18.10;6.13;;;;;;;13.42;87.02;101398.25;4959416;28;20267;-77
2021/09/24 07:46:24;;;;;;;23.30;5.47;;;;;;;13.60;86.56;101388.28;4988994;28;20689;-76
2021/09/24 07:48:50;;;;;;;15.07;4.87;;;;;;;13.82;86.11;101380.03;4956912;28;20284;-78
2021/09/24 07:51:16;;;;;;;15.40;5.23;;;;;;;14.05;85.31;101383.81;4958437;28;20213;-77
2021/09/24 07:53:43;;;;;;;19.33;5.03;;;;;;;14.08;84.29;101373.56;4990101;28;20182;-77
2021/09/24 07:56:09;;;;;;;18.03;4.83;;;;;;;14.12;84.00;101365.88;4962414;28;20223;-78
2021/09/24 07:58:38;;;;;;;15.57;5.07;;;;;;;14.37;83.40;101369.69;4968822;28;20206;-77
2021/09/24 08:01:04;;;;;;;15.60;4.63;;;;;;;14.30;83.62;101362.72;4975947;28;20636;-77
2021/09/24 08:03:29;;;;;;;16.03;4.50;;;;;;;14.35;83.48;101367.09;4976682;28;20639;-77
2021/09/24 08:05:55;;;;;;;17.10;3.83;;;;;;;14.47;83.68;101379.25;4967330;28;20263;-77
2021/09/24 08:08:20;;;;;;;13.67;4.20;;;;;;;14.64;82.31;101376.00;4973186;28;20658;-78
2021/09/24 08:10:46;;;;;;;16.03;4.10;;;;;;;14.75;82.19;101371.00;4967891;28;20239;-78
2021/09/24 08:13:11;;;;;;;17.43;4.23;;;;;;;14.95;81.37;101362.63;4964400;28;20205;-78
2021/09/24 08:15:42;;;;;;;11.23;3.80;;;;;;;15.19;80.23;101367.16;5006465;28;20604;-78
2021/09/24 08:18:07;;;;;;;13.87;3.60;;;;;;;15.30;79.95;101361.25;4966107;28;20722;-78
2021/09/24 08:20:33;;;;;;;11.83;3.30;;;;;;;16.29;77.31;101350.69;4957103;29;20200;-78
2021/09/24 08:22:58;;;;;;;12.03;3.03;;;;;;;16.27;77.04;101355.00;4958173;28;20193;-78
2021/09/24 08:25:23;;;;;;;12.93;3.97;;;;;;;16.53;76.13;101354.28;4983091;28;20221;-78
2021/09/24 08:27:49;;;;;;;13.83;3.13;;;;;;;16.17;77.15;101353.25;4988664;28;20185;-78
2021/09/24 08:30:16;;;;;;;13.63;3.53;;;;;;;16.21;77.48;101353.25;4969145;28;20685;-78
2021/09/24 08:32:42;;;;;;;9.23;3.27;;;;;;;16.26;76.67;101358.47;4976184;28;20698;-77
2021/09/24 08:35:11;;;;;;;10.70;3.40;;;;;;;16.12;77.22;101360.13;4983654;28;20212;-77
2021/09/24 08:37:37;;;;;;;13.50;3.53;;;;;;;16.07;77.15;101380.75;4992309;28;20197;-77
2021/09/24 08:40:05;;;;;;;10.97;3.40;;;;;;;16.20;77.51;101374.78;4975175;28;20237;-77
2021/09/24 08:42:30;;;;;;;11.17;3.40;;;;;;;16.55;75.99;101378.44;4975021;28;20248;-77
2021/09/24 08:44:55;;;;;;;11.80;3.43;;;;;;;16.53;75.69;101382.72;4975979;28;20220;-77
2021/09/24 08:47:20;;;;;;;15.30;3.70;;;;;;;16.84;74.73;101373.34;4967813;28;20194;-78
2021/09/24 08:49:46;;;;;;;9.13;3.07;;;;;;;16.78;74.11;101370.75;4958346;28;20181;-76
2021/09/24 08:52:13;;;;;;;9.23;2.93;;;;;;;16.75;75.26;101373.31;4961881;28;20580;-77
2021/09/24 08:54:39;;;;;;;11.10;3.20;;;;;;;16.64;74.67;101372.44;4978036;28;20745;-77
2021/09/24 08:57:04;;;;;;;11.70;3.23;;;;;;;16.73;75.50;101369.88;4975417;28;20216;-78
2021/09/24 08:59:30;;;;;;;11.73;3.10;;;;;;;16.53;76.41;101372.38;4976876;28;20199;-78
2021/09/24 09:02:04;;;;;;;11.37;3.67;;;;;;;16.45;76.93;101374.09;4975303;28;20219;-78
2021/09/24 09:04:38;;;;;;;9.63;2.93;;;;;;;16.48;76.61;101368.91;4963624;28;20235;-76
2021/09/24 09:07:11;;;;;;;8.70;2.77;;;;;;;16.58;76.35;101375.00;4952806;28;20934;-77
2021/09/24 09:09:40;;;;;;;9.77;3.07;;;;;;;16.44;76.36;101379.25;4991273;28;20284;-78
2021/09/24 09:12:20;;;;;;;11.87;4.03;;;;;;;16.45;76.79;101373.22;5003528;28;20216;-77
2021/09/24 09:14:58;;;;;;;11.13;2.80;;;;;;;16.32;77.10;101379.16;4986144;28;20270;-77
2021/09/24 09:17:32;;;;;;;11.37;3.17;;;;;;;16.26;77.75;101372.22;4996192;28;20199;-77
2021/09/24 09:20:14;;;;;;;10.63;3.03;;;;;;;16.23;78.23;101369.66;4993631;28;20196;-76
2021/09/24 09:22:41;;;;;;;10.20;3.10;;;;;;;16.25;78.51;101375.69;4996413;28;20208;-77
2021/09/24 09:25:24;;;;;;;10.27;3.33;;;;;;;16.10;78.42;101379.88;4995091;28;20204;-77
2021/09/24 09:27:52;;;;;;;8.13;2.87;;;;;;;16.03;78.86;101379.00;4996312;28;20188;-77
2021/09/24 09:30:18;;;;;;;11.93;3.40;;;;;;;16.05;78.81;101379.88;4988546;28;20208;-76
2021/09/24 09:32:57;;;;;;;11.43;3.33;;;;;;;16.00;79.37;101381.56;5007469;28;21031;-78
2021/09/24 09:35:23;;;;;;;9.63;3.33;;;;;;;15.97;79.84;101384.13;5015422;28;20184;-78
2021/09/24 09:37:48;;;;;;;10.73;2.97;;;;;;;15.94;79.35;101371.19;4980097;28;20188;-78
2021/09/24 09:40:16;;;;;;;10.47;3.13;;;;;;;15.97;79.08;101384.13;4991950;28;20758;-77
2021/09/24 09:42:43;;;;;;;9.50;3.00;;;;;;;15.95;79.57;101380.69;4978104;28;20209;-78
2021/09/24 09:45:13;;;;;;;8.23;2.87;;;;;;;15.86;79.84;101383.22;4979912;28;20709;-77
2021/09/24 09:47:40;;;;;;;10.73;4.70;;;;;;;15.98;79.80;101391.03;4979930;28;20200;-79
2021/09/24 09:50:19;;;;;;;16.87;9.87;;;;;;;15.95;79.99;101391.03;4980719;28;20675;-78
2021/09/24 09:53:10;;;;;;;12.13;4.30;;;;;;;16.04;79.89;101380.75;4995781;28;20247;-78
2021/09/24 09:55:39;;;;;;;10.90;4.03;;;;;;;16.22;78.98;101388.59;4994572;28;20224;-77
2021/09/24 09:58:08;;;;;;;9.30;4.00;;;;;;;16.19;79.65;101380.81;5000487;28;20188;-78
2021/09/24 10:00:36;;;;;;;10.13;3.97;;;;;;;16.23;79.41;101390.31;4994092;28;20180;-78
2021/09/24 10:03:05;;;;;;;10.43;3.47;;;;;;;16.19;79.34;101393.75;4979432;28;20181;-78
2021/09/24 10:05:37;;;;;;;10.73;3.63;;;;;;;16.22;79.00;101391.19;5013351;28;20246;-76
2021/09/24 10:08:30;;;;;;;10.20;3.80;;;;;;;16.29;78.92;101392.06;5000975;28;20241;-78
2021/09/24 10:11:04;;;;;;;10.03;4.13;;;;;;;16.47;77.98;101390.47;5015210;28;20207;-77
2021/09/24 10:13:33;;;;;;;9.63;4.07;;;;;;;16.31;78.88;101386.03;4981367;28;20672;-78
2021/09/24 10:15:59;;;;;;;9.80;4.17;;;;;;;16.33;79.22;101375.69;5014143;28;20196;-78
2021/09/24 10:18:24;;;;;;;13.47;5.03;;;;;;;16.37;78.65;101380.91;4999366;28;20191;-77
2021/09/24 10:20:50;;;;;;;10.33;5.00;;;;;;;16.42;78.76;101381.81;4995823;28;20191;-77
2021/09/24 10:23:15;;;;;;;10.03;5.00;;;;;;;16.39;78.27;101379.19;4988368;28;20199;-77
2021/09/24 10:25:44;;;;;;;18.83;12.27;;;;;;;16.50;78.48;101379.28;4978249;28;20252;-78
2021/09/24 10:28:11;;;;;;;9.47;5.27;;;;;;;16.47;78.42;101377.53;4982685;28;20184;-78
2021/09/24 10:30:38;;;;;;;8.37;5.80;;;;;;;16.45;78.24;101383.56;4998036;28;20196;-77
2021/09/24 10:33:11;;;;;;;10.97;6.67;;;;;;;16.48;78.43;101378.41;4998087;28;20474;-78
2021/09/24 10:35:50;;;;;;;12.43;7.03;;;;;;;16.49;78.67;101382.72;5008732;28;20191;-79
2021/09/24 10:38:19;;;;;;;7.93;5.70;;;;;;;16.45;78.66;101387.03;5017341;28;20203;-78
2021/09/24 10:41:07;;;;;;;9.47;6.30;;;;;;;16.49;78.53;101374.97;4984720;28;20274;-78
2021/09/24 10:43:45;;;;;;;10.57;5.90;;;;;;;16.58;78.27;101382.75;4977780;28;20224;-77
2021/09/24 10:46:37;;;;;;;11.03;5.77;;;;;;;16.62;78.09;101385.34;4994514;28;20241;-78
2021/09/24 10:49:19;;;;;;;8.97;5.97;;;;;;;16.58;78.35;101375.84;4971640;28;20610;-79
2021/09/24 10:52:11;;;;;;;11.93;5.97;;;;;;;16.57;78.40;101373.28;4978775;28;20211;-78
2021/09/24 10:55:14;;;;;;;10.67;6.03;;;;;;;16.50;78.67;101374.09;4978566;28;20183;-79
2021/09/24 10:57:50;;;;;;;11.00;6.27;;;;;;;16.47;78.95;101377.53;5027715;28;20219;-78
2021/09/24 11:00:27;;;;;;;14.70;7.20;;;;;;;16.38;79.06;101380.06;4981596;28;20208;-78
2021/09/24 11:03:05;;;;;;;18.77;7.83;;;;;;;16.35;79.63;101376.59;4988548;28;20809;-77
2021/09/24 11:06:01;;;;;;;12.80;7.47;;;;;;;16.33;79.47;101375.69;5019537;28;20702;-77
2021/09/24 11:08:29;;;;;;;10.83;7.50;;;;;;;16.37;79.62;101369.69;4978141;28;20677;-77
2021/09/24 11:11:21;;;;;;;12.03;7.70;;;;;;;16.38;79.60;101374.00;4993527;28;20212;-77
2021/09/24 11:14:00;;;;;;;14.30;7.83;;;;;;;16.46;79.39;101362.00;5014485;28;20234;-78
2021/09/24 11:16:42;;;;;;;13.90;7.50;;;;;;;16.48;79.71;101366.31;4997984;28;20190;-78